Detall de PIREP

Printer-friendly versionPDF version

[2011/08/28 10:33:00]
Flight IATA:CT0001
Pilot Number:042
Company ICAO:CAT
Aircraft Type:F100/A
PAX:40
Aircraft Registration:PFJ
Departing Airport: LEMH
Destination Airport: LEVC
Alternate Airport:LEAL
Online: VATSIM
Route:MJV A33 RIKOS
Flight Level:F230
No Slew and time accel
No pause
Crash detect
Detect pilot in Cockpit between each 30 and 45 minutes
10:33 Zero fuel Weight: 81826 Lbs, Fuel Weight: 22233 Lbs
10:33 VATSIM:LEMH 281000Z 19007KT 100V250 9999 FEW040 25/15 Q1021
10:33 VATSIM:LEVC 281000Z VRB04KT 9999 FEW030 29/17 Q1019 NOSIG
10:33 VOICE CATALONIAN
10:40 Parking Brakes off
10:44 Take-off
10:44 Take off Weight: 103516 Lbs
10:44 Wind: 188 @ 007 Knots Heading: 187
10:44 POS N39 51 23 E004 13 03
10:44 Gear Up: 173 Knots
10:44 Flaps:2 at 173 Knots
10:44 Flaps:1 at 163 Knots
10:45 Flaps:0 at 189 Knots
10:56 TOC
10:56 Fuel Weight: 20037 Lb
10:59 Wind:241@034 Knots Heading: 278 Ground Speed: 412 Knots Altitude 23231 ft
11:09 TOD
11:09 Fuel Weight: 18720 Lb
11:14 Wind:242@020 Knots Heading: 294 Ground Speed: 341 Knots Altitude 15754 ft
11:29 Wind:206@009 Knots Heading: 248 Ground Speed: 222 Knots Altitude 4993 ft
11:29 Flaps:1 at 201 Knots
11:30 Flaps:2 at 192 Knots
11:30 Flaps:3 at 189 Knots
11:30 Flaps:2 at 189 Knots
11:34 Gear Down: 155 Knots
11:34 Flaps:3 at 154 Knots
11:34 Flaps:4 at 148 Knots
11:37 TouchDown:Rate -208 ft/min Speed: 123 Knots
11:38 VATSIM:LEVC 281100Z 13006KT 070V190 9999 FEW035 29/17 Q1019 NOSIG
11:38 Land
11:38 Wind:159@005 Knots
11:38 Heading: 115
11:38 Flight Duration: 00:54
11:38 Landing Weight: 99060 Lbs
11:38 POS N39 29 31 W000 29 20
11:41 Parking brakes on
11:41 Block to Block Duration: 01:01
11:41 Final Fuel: 17101 Lbls
11:41 Spent Fuel: 5132 Lbls
11:41 Flight Length: 252 NM
11:41 TOD Land Length: 104 NM

Exportar CSV

Powered by Drupal - Modified by Danger4k